createdAt,value
2019-05-19T00:02:56.349Z,18.71
2019-05-19T00:07:58.043Z,18.52
2019-05-19T00:12:59.774Z,18.34
2019-05-19T00:18:01.741Z,18.15
2019-05-19T00:23:03.647Z,18.12
2019-05-19T00:28:05.628Z,18.36
2019-05-19T00:33:07.782Z,18.33
2019-05-19T00:38:09.403Z,18.58
2019-05-19T00:43:11.282Z,18.61
2019-05-19T00:48:13.129Z,18.55
2019-05-19T00:53:15.198Z,18.61
2019-05-19T00:58:16.883Z,18.69
2019-05-19T01:03:18.805Z,18.74
2019-05-19T01:08:20.862Z,18.68
2019-05-19T01:13:22.858Z,18.61
2019-05-19T01:18:24.917Z,18.57
2019-05-19T01:23:26.912Z,18.42
2019-05-19T01:28:28.689Z,18.19
2019-05-19T01:33:30.688Z,18.03
2019-05-19T01:38:32.564Z,17.71
2019-05-19T01:43:35.134Z,17.42
2019-05-19T01:48:36.835Z,17.31
2019-05-19T01:53:39.555Z,16.90
2019-05-19T01:58:41.288Z,16.88
2019-05-19T02:03:43.051Z,16.55
2019-05-19T02:08:46.651Z,16.25
2019-05-19T02:13:48.643Z,16.19
2019-05-19T02:18:50.406Z,15.73
2019-05-19T02:23:52.104Z,15.46
2019-05-19T02:28:53.866Z,15.00
2019-05-19T02:33:55.833Z,15.13
2019-05-19T02:38:57.697Z,15.38
2019-05-19T02:43:59.812Z,15.21
2019-05-19T02:49:01.602Z,15.30
2019-05-19T02:54:04.114Z,15.46
2019-05-19T02:59:06.089Z,15.31
2019-05-19T03:04:07.806Z,15.54
2019-05-19T03:09:09.604Z,15.62
2019-05-19T03:14:11.156Z,15.43
2019-05-19T03:19:12.863Z,15.55
2019-05-19T03:24:14.521Z,15.23
2019-05-19T03:29:16.055Z,15.54
2019-05-19T03:34:17.620Z,15.67
2019-05-19T03:39:19.096Z,15.76
2019-05-19T03:44:21.369Z,15.96
2019-05-19T03:49:23.018Z,16.00
2019-05-19T03:54:24.451Z,16.00
2019-05-19T03:59:25.856Z,15.87
2019-05-19T04:04:27.318Z,15.99
2019-05-19T04:09:28.741Z,15.95
2019-05-19T04:14:30.148Z,15.83
2019-05-19T04:19:31.655Z,15.74
2019-05-19T04:24:34.344Z,15.78
2019-05-19T04:29:39.227Z,15.76
2019-05-19T04:34:38.226Z,15.83
2019-05-19T04:39:39.845Z,15.91
2019-05-19T04:44:41.544Z,15.93
2019-05-19T04:49:43.148Z,15.94
2019-05-19T04:54:53.380Z,15.98
2019-05-19T04:59:55.175Z,15.70
2019-05-19T05:04:57.118Z,15.99
2019-05-19T05:09:58.928Z,16.37
2019-05-19T05:15:00.769Z,16.28
2019-05-19T05:20:02.384Z,16.51
2019-05-19T05:25:06.091Z,16.73
2019-05-19T05:30:07.849Z,16.71
2019-05-19T05:35:09.406Z,16.56
2019-05-19T05:40:10.917Z,17.02
2019-05-19T05:45:13.204Z,16.85
2019-05-19T05:50:14.662Z,16.81
2019-05-19T05:55:16.181Z,17.10
2019-05-19T06:00:17.636Z,17.47
2019-05-19T06:05:19.084Z,17.35
2019-05-19T06:10:22.164Z,17.31
2019-05-19T06:15:23.817Z,16.34
2019-05-19T06:20:25.522Z,16.91
2019-05-19T06:25:27.756Z,17.48
2019-05-19T06:30:29.123Z,17.06
2019-05-19T06:35:30.637Z,17.80
2019-05-19T06:40:32.108Z,17.75
2019-05-19T06:45:33.791Z,18.02
2019-05-19T06:50:35.618Z,18.03
2019-05-19T06:55:37.746Z,18.01
2019-05-19T07:00:39.186Z,17.61
2019-05-19T07:05:40.806Z,18.54
2019-05-19T07:10:42.473Z,17.27
2019-05-19T07:15:44.023Z,17.94
2019-05-19T07:20:46.512Z,18.05
2019-05-19T07:25:49.130Z,18.31
2019-05-19T07:30:50.806Z,18.73
2019-05-19T07:35:52.482Z,18.36
2019-05-19T07:40:54.074Z,18.60
2019-05-19T07:45:56.673Z,18.23
2019-05-19T07:50:58.696Z,18.51
2019-05-19T07:56:00.846Z,18.82
2019-05-19T08:01:02.491Z,19.86
2019-05-19T08:06:04.045Z,19.10
2019-05-19T08:11:06.150Z,19.49
2019-05-19T08:16:07.817Z,20.12
2019-05-19T08:21:09.450Z,19.24
2019-05-19T08:26:12.178Z,19.96
2019-05-19T08:31:13.665Z,20.38
2019-05-19T08:36:15.161Z,20.04
2019-05-19T08:41:16.663Z,20.78
2019-05-19T08:46:18.097Z,20.88
2019-05-19T08:51:19.417Z,21.08
2019-05-19T08:56:21.582Z,20.34
2019-05-19T09:01:23.156Z,20.57
2019-05-19T09:06:24.764Z,20.41
2019-05-19T09:11:26.866Z,20.25
2019-05-19T09:16:28.637Z,20.32
2019-05-19T09:21:30.376Z,21.43
2019-05-19T09:26:32.279Z,21.55
2019-05-19T09:31:33.874Z,21.45
2019-05-19T09:36:36.432Z,20.95
2019-05-19T09:41:37.947Z,21.70
2019-05-19T09:46:40.560Z,21.85
2019-05-19T09:56:59.395Z,21.95
2019-05-19T10:02:01.177Z,21.27
2019-05-19T10:07:05.205Z,21.40
2019-05-19T10:12:05.869Z,21.42
2019-05-19T10:17:07.216Z,21.38
2019-05-19T10:22:08.590Z,22.31
2019-05-19T10:27:09.933Z,22.54
2019-05-19T10:32:11.287Z,22.54
2019-05-19T10:37:12.626Z,22.72
2019-05-19T10:42:13.957Z,22.91
2019-05-19T10:47:15.307Z,23.06
2019-05-19T10:52:16.637Z,22.61
2019-05-19T10:57:17.974Z,22.08
2019-05-19T11:02:19.300Z,22.44
2019-05-19T11:07:20.714Z,22.91
2019-05-19T11:12:22.813Z,22.35
2019-05-19T11:17:24.136Z,23.14
2019-05-19T11:22:25.434Z,23.60
2019-05-19T11:27:27.547Z,23.72
2019-05-19T11:32:28.890Z,23.74
2019-05-19T11:37:30.215Z,23.85
2019-05-19T11:42:31.593Z,23.55
2019-05-19T11:47:33.680Z,23.55
2019-05-19T11:52:35.009Z,24.04
2019-05-19T11:57:36.373Z,24.02
2019-05-19T12:02:37.746Z,24.50
2019-05-19T12:07:39.082Z,25.80
2019-05-19T12:12:41.827Z,24.39
2019-05-19T12:17:43.495Z,25.33
2019-05-19T12:22:46.195Z,26.31
2019-05-19T12:27:48.873Z,25.23
2019-05-19T12:32:50.553Z,25.80
2019-05-19T12:37:52.334Z,26.29
2019-05-19T12:42:55.333Z,25.43
2019-05-19T12:47:56.903Z,26.18
2019-05-19T12:52:58.896Z,25.64
2019-05-19T12:58:01.420Z,24.98
2019-05-19T13:03:02.936Z,24.83
2019-05-19T13:08:05.325Z,25.74
2019-05-19T13:13:06.681Z,26.18
2019-05-19T13:18:07.986Z,26.34
2019-05-19T13:23:10.049Z,26.17
2019-05-19T13:28:12.137Z,26.13
2019-05-19T13:33:14.214Z,27.06
2019-05-19T13:38:15.569Z,26.89
2019-05-19T13:43:26.345Z,29.10
2019-05-19T13:48:24.865Z,29.66
2019-05-19T13:53:27.010Z,30.49
2019-05-19T13:58:28.805Z,30.52
2019-05-19T14:03:30.166Z,29.40
2019-05-19T14:08:31.477Z,29.23
2019-05-19T14:13:32.789Z,30.83
2019-05-19T14:18:34.151Z,30.57
2019-05-19T14:23:35.741Z,29.91
2019-05-19T14:28:37.116Z,30.59
2019-05-19T14:33:38.436Z,29.17
2019-05-19T14:38:49.078Z,29.01
2019-05-19T14:43:51.163Z,28.66
2019-05-19T14:48:52.473Z,28.64
2019-05-19T14:53:53.867Z,28.63
2019-05-19T14:58:55.200Z,28.41
2019-05-19T15:03:56.552Z,28.07
2019-05-19T15:08:57.952Z,28.70
2019-05-19T15:14:00.045Z,29.32
2019-05-19T15:19:01.426Z,29.42
2019-05-19T15:24:02.773Z,29.51
2019-05-19T15:29:04.175Z,29.64
2019-05-19T15:34:05.451Z,28.72
2019-05-19T15:39:06.781Z,29.28
2019-05-19T15:44:08.879Z,29.67
2019-05-19T15:49:10.216Z,29.57
2019-05-19T15:54:11.530Z,30.67
2019-05-19T15:59:12.895Z,31.23
2019-05-19T16:04:14.257Z,31.11
2019-05-19T16:09:15.548Z,30.69
2019-05-19T16:14:16.905Z,30.77
2019-05-19T16:19:18.258Z,30.70
2019-05-19T16:24:19.643Z,29.93
2019-05-19T16:29:21.514Z,29.21
2019-05-19T16:34:22.839Z,29.02
2019-05-19T16:39:24.156Z,28.58
2019-05-19T16:44:25.474Z,28.30
2019-05-19T16:49:26.781Z,28.05
2019-05-19T16:54:28.104Z,27.62
2019-05-19T16:59:29.462Z,27.70
2019-05-19T17:04:30.793Z,27.37
2019-05-19T17:09:34.408Z,26.64
2019-05-19T17:14:39.672Z,26.31
2019-05-19T17:19:44.141Z,25.79
2019-05-19T17:24:48.338Z,25.44
2019-05-19T17:29:53.645Z,24.47
2019-05-19T17:34:55.020Z,24.40
2019-05-19T17:39:58.915Z,24.44
2019-05-19T17:45:01.841Z,24.03
2019-05-19T17:50:03.178Z,23.88
2019-05-19T17:55:04.567Z,24.12
2019-05-19T18:00:05.931Z,24.23
2019-05-19T18:05:07.275Z,23.87
2019-05-19T18:10:08.603Z,23.49
2019-05-19T18:15:13.445Z,23.46
2019-05-19T18:20:23.390Z,23.22
2019-05-19T18:25:16.167Z,22.89
2019-05-19T18:30:17.482Z,22.55
2019-05-19T18:35:18.840Z,22.32
2019-05-19T18:40:20.197Z,22.32
2019-05-19T18:45:22.307Z,22.45
2019-05-19T18:50:23.657Z,22.78
2019-05-19T18:55:25.356Z,22.99
2019-05-19T19:00:31.025Z,23.08
2019-05-19T19:05:32.757Z,23.27
2019-05-19T19:10:35.046Z,23.27
2019-05-19T19:15:36.748Z,23.46
2019-05-19T19:20:38.239Z,23.43
2019-05-19T19:25:39.878Z,23.49
2019-05-19T19:30:42.940Z,23.23
2019-05-19T19:35:46.803Z,23.06
2019-05-19T19:40:49.353Z,22.00
2019-05-19T19:45:52.168Z,21.76
2019-05-19T19:57:00.425Z,21.38
2019-05-19T20:01:59.760Z,21.12
2019-05-19T20:07:02.529Z,20.81
2019-05-19T20:12:04.703Z,20.42
2019-05-19T20:17:06.485Z,20.34
2019-05-19T20:22:08.099Z,20.50
2019-05-19T20:27:10.046Z,20.34
2019-05-19T20:32:11.653Z,19.05
2019-05-19T20:37:15.228Z,18.71
2019-05-19T20:42:15.481Z,17.93
2019-05-19T20:47:17.713Z,17.86
2019-05-19T20:52:19.256Z,18.33
2019-05-19T20:57:20.613Z,18.89
2019-05-19T21:02:22.318Z,18.79
2019-05-19T21:07:24.053Z,18.18
2019-05-19T21:12:25.618Z,17.99
2019-05-19T21:17:28.042Z,17.37
2019-05-19T21:22:29.556Z,17.44
2019-05-19T21:27:30.957Z,17.76
2019-05-19T21:32:32.585Z,18.09
2019-05-19T21:37:34.058Z,18.19
2019-05-19T21:42:35.734Z,18.47
2019-05-19T21:47:37.619Z,18.39
2019-05-19T21:52:39.455Z,18.42
2019-05-19T21:57:41.329Z,18.33
2019-05-19T22:02:43.421Z,18.42
2019-05-19T22:13:13.649Z,18.02
2019-05-19T22:18:16.905Z,18.03
2019-05-19T22:23:18.630Z,17.74
2019-05-19T22:28:21.425Z,17.29
2019-05-19T22:33:24.848Z,17.35
2019-05-19T22:38:27.953Z,17.28
2019-05-19T22:43:29.764Z,17.09
2019-05-19T22:48:32.921Z,17.65
2019-05-19T22:53:35.311Z,17.76
2019-05-19T22:58:37.914Z,18.06
2019-05-19T23:03:39.816Z,18.09
2019-05-19T23:08:42.671Z,17.97
2019-05-19T23:13:44.560Z,17.97
2019-05-19T23:18:48.237Z,17.96
2019-05-19T23:23:50.108Z,18.01
2019-05-19T23:28:51.999Z,17.99
2019-05-19T23:33:54.060Z,18.12
2019-05-19T23:38:56.036Z,17.88
2019-05-19T23:43:58.140Z,18.17
2019-05-19T23:49:00.320Z,18.18
2019-05-19T23:54:02.499Z,18.14
2019-05-19T23:59:04.493Z,18.20
